Time;durP1;ratioP1;P1;durP2;ratioP2;P2;SDS_P1;SDS_P2;PMS_P1;PMS_P2;Temp;Humidity;BMP_temperature;BMP_pressure;BME280_temperature;BME280_humidity;BME280_pressure;Samples;Min_cycle;Max_cycle;Signal;HPM_P1;HPM_P2
2021/12/12 00:09:45;;;;;;;16.50;8.20;;;6.50;94.30;;;;;;21000726;28;20235;-74
2021/12/12 00:19:47;;;;;;;15.00;8.00;;;6.50;94.40;;;;;;21000302;28;20652;-73
2021/12/12 00:29:50;;;;;;;13.90;8.93;;;6.50;94.10;;;;;;20998915;28;20293;-74
2021/12/12 00:40:04;;;;;;;14.87;7.07;;;6.50;94.40;;;;;;20997961;28;20209;-74
2021/12/12 00:50:17;;;;;;;14.60;7.13;;;6.50;94.20;;;;;;20997501;28;20247;-72
2021/12/12 01:00:36;;;;;;;12.40;6.70;;;6.40;93.80;;;;;;20996472;28;20204;-68
2021/12/12 01:10:43;;;;;;;15.50;7.07;;;6.40;93.80;;;;;;20995470;28;20247;-67
2021/12/12 01:20:56;;;;;;;16.03;6.57;;;6.50;94.10;;;;;;20996484;28;20207;-70
2021/12/12 01:31:00;;;;;;;14.47;6.63;;;6.40;93.60;;;;;;20994251;28;20239;-70
2021/12/12 01:41:03;;;;;;;14.47;5.97;;;6.30;93.30;;;;;;20994512;28;20718;-68
2021/12/12 01:51:08;;;;;;;11.27;5.60;;;6.30;93.50;;;;;;20995692;28;20599;-69
2021/12/12 02:01:17;;;;;;;10.27;5.30;;;6.10;93.10;;;;;;20995618;28;20210;-71
2021/12/12 02:11:25;;;;;;;10.20;5.60;;;6.00;93.40;;;;;;20995133;28;20236;-69
2021/12/12 02:21:37;;;;;;;12.77;6.57;;;5.90;93.30;;;;;;20995310;28;20210;-68
2021/12/12 02:42:04;;;;;;;11.73;6.53;;;5.60;93.20;;;;;;20993976;28;20214;-67
2021/12/12 02:52:15;;;;;;;15.83;6.57;;;5.50;93.30;;;;;;20993409;28;20246;-72
2021/12/12 03:02:25;;;;;;;15.97;7.30;;;5.50;93.50;;;;;;20998860;28;20207;-73
2021/12/12 03:20:33;;;;;;;13.80;7.50;;;5.60;93.40;;;;;;20984869;28;20558;-69
2021/12/12 03:30:35;;;;;;;12.07;7.63;;;5.60;93.40;;;;;;20972067;28;20200;-72
2021/12/12 03:40:39;;;;;;;15.67;8.10;;;5.70;93.50;;;;;;20897885;28;20664;-75
2021/12/12 03:50:46;;;;;;;14.27;7.87;;;5.70;93.80;;;;;;20899759;28;20224;-74
2021/12/12 04:00:50;;;;;;;13.63;8.00;;;5.80;93.40;;;;;;20898708;28;20258;-69
2021/12/12 04:10:52;;;;;;;14.70;8.07;;;5.80;93.40;;;;;;20897623;28;20266;-69
2021/12/12 04:20:55;;;;;;;17.83;8.60;;;5.90;93.70;;;;;;20897538;28;20714;-69
2021/12/12 04:30:57;;;;;;;15.23;7.20;;;5.80;93.60;;;;;;20845710;28;20232;-73
2021/12/12 04:40:59;;;;;;;15.47;7.30;;;5.70;93.40;;;;;;20840645;28;20295;-74
2021/12/12 04:51:03;;;;;;;12.37;6.70;;;5.70;93.60;;;;;;20840329;28;20299;-75
2021/12/12 05:01:19;;;;;;;12.93;5.50;;;5.60;93.30;;;;;;20839168;28;20209;-74
2021/12/12 05:11:28;;;;;;;9.57;5.37;;;5.40;93.10;;;;;;20839323;28;20726;-72
2021/12/12 05:21:35;;;;;;;13.50;5.10;;;5.30;93.10;;;;;;20837474;28;20207;-69
2021/12/12 05:31:37;;;;;;;10.73;4.70;;;5.30;93.30;;;;;;20846687;28;20634;-69
2021/12/12 05:41:39;;;;;;;17.50;5.00;;;5.20;93.10;;;;;;20914456;28;20274;-71
2021/12/12 05:51:41;;;;;;;10.57;4.43;;;5.00;92.90;;;;;;20917399;28;20350;-73
2021/12/12 06:01:43;;;;;;;14.00;4.53;;;4.90;93.10;;;;;;20917186;28;20713;-68
2021/12/12 06:11:49;;;;;;;9.47;4.80;;;4.80;92.90;;;;;;20915725;28;20627;-67
2021/12/12 06:21:53;;;;;;;11.43;4.60;;;4.70;93.10;;;;;;20915510;28;20204;-68
2021/12/12 06:31:55;;;;;;;10.10;4.77;;;4.80;93.40;;;;;;20914775;28;20258;-66
2021/12/12 06:41:57;;;;;;;9.63;4.83;;;4.70;93.20;;;;;;20913899;28;20663;-69
2021/12/12 06:52:01;;;;;;;10.90;4.70;;;4.70;93.00;;;;;;20912898;28;20239;-70
2021/12/12 07:02:06;;;;;;;7.70;4.57;;;4.70;93.30;;;;;;20913221;28;20614;-67
2021/12/12 07:12:11;;;;;;;15.02;4.90;;;4.70;92.90;;;;;;20912142;28;20426;-70
2021/12/12 07:22:14;;;;;;;9.17;4.53;;;4.90;92.90;;;;;;20911887;28;20548;-74
2021/12/12 07:32:16;;;;;;;9.57;4.70;;;4.90;92.90;;;;;;20898859;28;20234;-74
2021/12/12 07:42:18;;;;;;;9.73;4.47;;;5.00;92.80;;;;;;20826334;28;20212;-66
2021/12/12 07:52:23;;;;;;;8.17;3.93;;;5.00;92.70;;;;;;20828408;28;20232;-67
2021/12/12 08:02:26;;;;;;;6.17;4.30;;;5.10;93.10;;;;;;20836078;28;20204;-66
2021/12/12 08:12:29;;;;;;;5.13;3.40;;;5.30;92.70;;;;;;20842709;28;20756;-65
2021/12/12 08:22:31;;;;;;;9.33;3.50;;;5.30;92.70;;;;;;20842127;28;20205;-66
2021/12/12 08:32:33;;;;;;;10.10;4.80;;;5.50;92.70;;;;;;20841628;28;20235;-66
2021/12/12 08:42:42;;;;;;;13.10;5.73;;;5.60;92.30;;;;;;20840088;28;20205;-68
2021/12/12 08:52:46;;;;;;;13.67;5.60;;;5.60;92.30;;;;;;20839537;28;20241;-70
2021/12/12 09:02:50;;;;;;;8.23;4.40;;;5.90;92.60;;;;;;20847473;28;20211;-73
2021/12/12 09:13:02;;;;;;;7.87;3.70;;;5.90;92.80;;;;;;20886433;28;20323;-75
2021/12/12 09:23:11;;;;;;;7.47;3.47;;;6.20;92.00;;;;;;20887036;28;20204;-74
2021/12/12 09:33:23;;;;;;;6.73;3.30;;;6.30;92.10;;;;;;20836765;28;20238;-65
2021/12/12 09:58:37;;;;;;;7.23;2.97;;;6.50;91.20;;;;;;20982689;28;20236;-66
2021/12/12 10:09:06;;;;;;;5.30;2.90;;;6.80;90.40;;;;;;20982078;28;20250;-63
2021/12/12 10:19:41;;;;;;;7.63;2.90;;;6.80;90.30;;;;;;20960400;28;20748;-69
2021/12/12 10:30:20;;;;;;;5.33;2.80;;;6.90;89.30;;;;;;20966493;28;20660;-77
2021/12/12 10:40:49;;;;;;;5.50;2.73;;;6.90;88.80;;;;;;20921963;28;20299;-72
2021/12/12 10:51:08;;;;;;;6.13;3.23;;;7.00;88.30;;;;;;20884114;28;20577;-74
2021/12/12 11:01:12;;;;;;;4.97;2.70;;;7.10;87.80;;;;;;20839885;28;20236;-74
2021/12/12 11:11:19;;;;;;;6.93;3.00;;;7.00;87.60;;;;;;20848443;28;20205;-73
2021/12/12 11:21:24;;;;;;;4.67;2.93;;;7.20;87.80;;;;;;20921682;28;20230;-74
2021/12/12 11:31:41;;;;;;;5.57;2.77;;;7.30;87.30;;;;;;20920675;28;20208;-77
2021/12/12 11:41:53;;;;;;;6.40;2.73;;;7.20;87.30;;;;;;20920544;28;20295;-75
2021/12/12 11:52:02;;;;;;;6.27;2.60;;;7.20;87.80;;;;;;20919253;28;20571;-76
2021/12/12 12:02:25;;;;;;;5.47;2.60;;;7.20;87.80;;;;;;20917394;28;20638;-77
2021/12/12 12:12:52;;;;;;;6.43;2.70;;;7.20;87.60;;;;;;20897983;28;20203;-71
2021/12/12 12:23:20;;;;;;;7.87;2.70;;;7.30;88.00;;;;;;20834855;28;20236;-67
2021/12/12 12:33:47;;;;;;;5.37;2.90;;;7.30;88.40;;;;;;20834036;28;20282;-71
2021/12/12 12:44:26;;;;;;;6.37;2.90;;;7.30;87.50;;;;;;20852270;28;20299;-70
2021/12/12 12:54:59;;;;;;;7.27;2.80;;;7.20;87.50;;;;;;20911746;28;20257;-71
2021/12/12 13:05:07;;;;;;;7.40;3.30;;;7.20;87.40;;;;;;20913655;28;20245;-76
2021/12/12 13:15:37;;;;;;;3.57;2.53;;;7.20;87.90;;;;;;20882310;28;20220;-77
2021/12/12 13:26:06;;;;;;;5.43;2.87;;;7.10;87.50;;;;;;20826843;28;20272;-73
2021/12/12 13:36:28;;;;;;;5.43;2.80;;;7.20;87.70;;;;;;20819784;28;20240;-75
2021/12/12 13:47:07;;;;;;;9.37;2.87;;;7.30;88.30;;;;;;20829119;28;20710;-70
2021/12/12 13:57:37;;;;;;;8.73;3.43;;;7.30;87.80;;;;;;20829010;28;20217;-72
2021/12/12 14:08:01;;;;;;;6.30;3.27;;;7.30;87.80;;;;;;20828634;28;20639;-73
2021/12/12 14:18:06;;;;;;;6.40;3.10;;;7.40;88.50;;;;;;20828510;28;20317;-71
2021/12/12 14:28:09;;;;;;;8.73;4.40;;;7.40;87.90;;;;;;20833030;28;20263;-71
2021/12/12 14:38:14;;;;;;;8.37;3.47;;;7.20;87.80;;;;;;20842731;28;20244;-78
2021/12/12 14:48:22;;;;;;;10.07;3.17;;;7.20;88.40;;;;;;20842661;28;20682;-74
2021/12/12 14:58:30;;;;;;;7.80;3.13;;;7.20;89.00;;;;;;20840709;28;20268;-73
2021/12/12 15:08:40;;;;;;;7.27;3.60;;;7.10;89.30;;;;;;20840471;28;20741;-66
2021/12/12 15:18:47;;;;;;;9.00;4.80;;;7.30;89.90;;;;;;20887963;28;20229;-71
2021/12/12 15:28:51;;;;;;;6.03;3.50;;;7.30;90.00;;;;;;20920454;28;20296;-70
2021/12/12 15:38:55;;;;;;;9.77;4.10;;;7.30;90.10;;;;;;20920297;28;20571;-71
2021/12/12 15:49:04;;;;;;;8.93;4.10;;;7.30;90.40;;;;;;20918704;28;20616;-72
2021/12/12 15:59:10;;;;;;;5.87;3.37;;;7.50;90.80;;;;;;20917381;28;20237;-74
2021/12/12 16:09:18;;;;;;;6.67;3.70;;;7.40;90.80;;;;;;20918211;28;20206;-77
2021/12/12 16:19:29;;;;;;;8.50;3.90;;;7.50;90.90;;;;;;20918495;28;20234;-73
2021/12/12 16:29:33;;;;;;;10.73;4.13;;;7.40;90.90;;;;;;20916606;28;20235;-78
2021/12/12 16:39:50;;;;;;;14.20;4.40;;;7.40;91.30;;;;;;20914390;28;20307;-75
2021/12/12 16:49:53;;;;;;;7.53;4.03;;;7.40;91.20;;;;;;20874258;28;20209;-75
2021/12/12 17:00:19;;;;;;;10.33;3.93;;;7.50;91.70;;;;;;20914763;28;20263;-69
2021/12/12 17:10:22;;;;;;;6.77;3.83;;;7.30;92.10;;;;;;20832352;28;20264;-67
2021/12/12 17:20:28;;;;;;;11.90;4.60;;;7.20;92.90;;;;;;20830603;28;20245;-68
2021/12/12 17:30:33;;;;;;;9.20;4.83;;;7.30;93.30;;;;;;20830995;28;20207;-81
2021/12/12 17:40:41;;;;;;;8.47;4.30;;;7.20;93.60;;;;;;20859003;28;20248;-76
2021/12/12 17:51:19;;;;;;;7.77;4.20;;;7.20;94.20;;;;;;20913948;28;20271;-75
2021/12/12 18:01:35;;;;;;;6.00;3.90;;;7.20;94.50;;;;;;20919615;28;20607;-70
2021/12/12 18:11:40;;;;;;;8.67;4.13;;;7.40;94.80;;;;;;20938126;28;20215;-69
2021/12/12 18:21:46;;;;;;;12.03;5.27;;;7.30;95.00;;;;;;20927101;28;20867;-72
2021/12/12 18:31:50;;;;;;;10.87;5.17;;;7.30;95.50;;;;;;20926775;28;20202;-68
2021/12/12 18:41:59;;;;;;;7.73;5.17;;;7.30;95.70;;;;;;20924823;28;20721;-68
2021/12/12 18:52:08;;;;;;;10.63;5.73;;;7.40;96.10;;;;;;20924728;28;20205;-66
2021/12/12 19:02:16;;;;;;;16.93;6.10;;;7.30;96.10;;;;;;20921763;28;20240;-68
2021/12/12 19:12:32;;;;;;;12.13;6.17;;;7.40;96.50;;;;;;20921682;28;20205;-64
2021/12/12 19:22:36;;;;;;;14.40;8.67;;;7.40;96.80;;;;;;20921830;28;20700;-63
2021/12/12 19:32:40;;;;;;;17.03;8.33;;;7.40;97.10;;;;;;20919988;28;20267;-65
2021/12/12 19:42:45;;;;;;;12.23;6.43;;;7.40;97.20;;;;;;20871750;28;20234;-68
2021/12/12 19:52:48;;;;;;;11.93;6.53;;;7.40;97.60;;;;;;20835858;28;20612;-64
2021/12/12 20:02:50;;;;;;;15.03;6.67;;;7.40;97.70;;;;;;20835217;28;20651;-64
2021/12/12 20:12:56;;;;;;;15.40;7.07;;;7.40;97.80;;;;;;20834273;28;20225;-65
2021/12/12 20:23:04;;;;;;;14.93;7.20;;;7.40;97.80;;;;;;20848952;28;20249;-76
2021/12/12 20:33:24;;;;;;;12.63;6.57;;;7.30;98.00;;;;;;20912264;28;20236;-78
2021/12/12 20:43:40;;;;;;;14.03;7.17;;;7.30;98.20;;;;;;20913557;28;20252;-75
2021/12/12 20:53:50;;;;;;;11.40;6.63;;;7.30;98.30;;;;;;20912816;28;20244;-76
2021/12/12 21:03:57;;;;;;;13.03;7.57;;;7.40;98.60;;;;;;20908357;28;20455;-75
2021/12/12 21:14:03;;;;;;;10.07;6.40;;;7.80;99.00;;;;;;20911638;28;20663;-68
2021/12/12 21:24:16;;;;;;;13.33;7.33;;;7.50;99.00;;;;;;20910922;28;20269;-65
2021/12/12 21:34:20;;;;;;;14.37;7.37;;;7.40;98.90;;;;;;20910208;28;20649;-64
2021/12/12 21:44:30;;;;;;;14.00;7.73;;;7.40;99.10;;;;;;20909600;28;20250;-64
2021/12/12 21:54:32;;;;;;;12.10;7.40;;;7.40;98.90;;;;;;20909457;28;20244;-71
2021/12/12 22:04:42;;;;;;;12.10;7.50;;;7.50;99.20;;;;;;20908945;28;20239;-73
2021/12/12 22:14:57;;;;;;;11.17;6.83;;;7.40;99.00;;;;;;20909058;28;20263;-69
2021/12/12 22:24:59;;;;;;;10.93;8.00;;;7.40;98.90;;;;;;20902998;28;20245;-73
2021/12/12 22:35:26;;;;;;;12.87;8.20;;;7.40;99.00;;;;;;20905722;28;20606;-73
2021/12/12 22:45:32;;;;;;;12.73;7.97;;;7.40;99.40;;;;;;20907520;28;20250;-75
2021/12/12 22:55:40;;;;;;;10.90;7.23;;;7.50;99.50;;;;;;20921988;28;20236;-73
2021/12/12 23:06:01;;;;;;;14.67;7.67;;;7.40;99.30;;;;;;20922445;28;20283;-75
2021/12/12 23:16:16;;;;;;;12.53;7.30;;;7.50;99.60;;;;;;20906666;28;20215;-73
2021/12/12 23:26:24;;;;;;;11.27;7.47;;;7.50;99.30;;;;;;20889108;28;20700;-75
2021/12/12 23:36:27;;;;;;;13.77;6.90;;;7.50;99.40;;;;;;20921341;28;20206;-75
2021/12/12 23:46:36;;;;;;;10.93;6.60;;;7.60;99.80;;;;;;20920597;28;20245;-75
2021/12/12 23:56:41;;;;;;;11.67;6.87;;;7.60;99.40;;;;;;20919824;28;20206;-75
